sensor_id;sensor_type;location;lat;lon;timestamp;pressure;altitude;pressure_sealevel;temperature;humidity
5522;BME280;2783;48.730;8.006;2024-02-28T00:01:50;100186.84;;;8.36;100.00
5522;BME280;2783;48.730;8.006;2024-02-28T00:04:16;100185.06;;;8.36;100.00
5522;BME280;2783;48.730;8.006;2024-02-28T00:06:41;100186.84;;;8.36;100.00
5522;BME280;2783;48.730;8.006;2024-02-28T00:09:07;100185.16;;;8.33;100.00
5522;BME280;2783;48.730;8.006;2024-02-28T00:11:32;100188.66;;;8.34;100.00
5522;BME280;2783;48.730;8.006;2024-02-28T00:13:58;100191.38;;;8.31;100.00
5522;BME280;2783;48.730;8.006;2024-02-28T00:16:25;100187.03;;;8.28;100.00
5522;BME280;2783;48.730;8.006;2024-02-28T00:18:51;100193.13;;;8.32;100.00
5522;BME280;2783;48.730;8.006;2024-02-28T00:21:16;100192.22;;;8.33;100.00
5522;BME280;2783;48.730;8.006;2024-02-28T00:23:42;100193.19;;;8.27;100.00
5522;BME280;2783;48.730;8.006;2024-02-28T00:26:07;100201.19;;;8.26;100.00
5522;BME280;2783;48.730;8.006;2024-02-28T00:28:33;100194.94;;;8.30;100.00
5522;BME280;2783;48.730;8.006;2024-02-28T00:30:58;100202.88;;;8.30;100.00
5522;BME280;2783;48.730;8.006;2024-02-28T00:33:23;100202.84;;;8.31;100.00
5522;BME280;2783;48.730;8.006;2024-02-28T00:35:49;100208.13;;;8.33;100.00
5522;BME280;2783;48.730;8.006;2024-02-28T00:38:14;100211.63;;;8.35;100.00
5522;BME280;2783;48.730;8.006;2024-02-28T00:40:40;100214.28;;;8.35;100.00
5522;BME280;2783;48.730;8.006;2024-02-28T00:43:05;100205.34;;;8.39;100.00
5522;BME280;2783;48.730;8.006;2024-02-28T00:45:30;100212.31;;;8.43;100.00
5522;BME280;2783;48.730;8.006;2024-02-28T00:47:56;100190.41;;;8.35;100.00
5522;BME280;2783;48.730;8.006;2024-02-28T00:50:21;100212.22;;;8.47;100.00
5522;BME280;2783;48.730;8.006;2024-02-28T00:52:47;100204.16;;;8.52;100.00
5522;BME280;2783;48.730;8.006;2024-02-28T00:55:12;100216.53;;;8.53;100.00
5522;BME280;2783;48.730;8.006;2024-02-28T00:57:38;100222.66;;;8.56;99.99
5522;BME280;2783;48.730;8.006;2024-02-28T01:00:03;100211.09;;;8.59;99.99
5522;BME280;2783;48.730;8.006;2024-02-28T01:02:32;100219.00;;;8.60;99.78
5522;BME280;2783;48.730;8.006;2024-02-28T01:04:57;100215.47;;;8.61;100.00
5522;BME280;2783;48.730;8.006;2024-02-28T01:07:22;100218.84;;;8.68;100.00
5522;BME280;2783;48.730;8.006;2024-02-28T01:09:48;100217.03;;;8.71;99.39
5522;BME280;2783;48.730;8.006;2024-02-28T01:12:13;100218.69;;;8.75;99.51
5522;BME280;2783;48.730;8.006;2024-02-28T01:14:39;100218.59;;;8.78;99.14
5522;BME280;2783;48.730;8.006;2024-02-28T01:17:04;100224.78;;;8.79;99.04
5522;BME280;2783;48.730;8.006;2024-02-28T01:19:30;100223.09;;;8.75;98.86
5522;BME280;2783;48.730;8.006;2024-02-28T01:21:56;100157.72;;;8.34;98.76
5522;BME280;2783;48.730;8.006;2024-02-28T01:24:22;100214.25;;;8.76;98.79
5522;BME280;2783;48.730;8.006;2024-02-28T01:26:48;100208.91;;;8.77;98.95
5522;BME280;2783;48.730;8.006;2024-02-28T01:29:13;100217.75;;;8.78;98.70
5522;BME280;2783;48.730;8.006;2024-02-28T01:31:39;100209.94;;;8.70;98.14
5522;BME280;2783;48.730;8.006;2024-02-28T01:34:04;100202.94;;;8.68;98.63
5522;BME280;2783;48.730;8.006;2024-02-28T01:36:29;100217.16;;;8.64;98.31
5522;BME280;2783;48.730;8.006;2024-02-28T01:38:55;100212.72;;;8.66;98.50
5522;BME280;2783;48.730;8.006;2024-02-28T01:41:20;100222.44;;;8.65;98.35
5522;BME280;2783;48.730;8.006;2024-02-28T01:43:46;100219.75;;;8.67;98.30
5522;BME280;2783;48.730;8.006;2024-02-28T01:46:31;100219.88;;;8.61;98.16
5522;BME280;2783;48.730;8.006;2024-02-28T01:48:58;100229.69;;;8.57;97.73
5522;BME280;2783;48.730;8.006;2024-02-28T01:51:25;100220.88;;;8.55;97.78
5522;BME280;2783;48.730;8.006;2024-02-28T01:53:53;100221.75;;;8.56;98.11
5522;BME280;2783;48.730;8.006;2024-02-28T01:56:19;100225.38;;;8.52;97.88
5522;BME280;2783;48.730;8.006;2024-02-28T01:58:46;100237.75;;;8.53;97.64
5522;BME280;2783;48.730;8.006;2024-02-28T02:01:14;100236.81;;;8.54;98.21
5522;BME280;2783;48.730;8.006;2024-02-28T02:03:40;100233.28;;;8.55;97.89
5522;BME280;2783;48.730;8.006;2024-02-28T02:06:05;100233.34;;;8.50;97.81
5522;BME280;2783;48.730;8.006;2024-02-28T02:08:32;100237.97;;;8.41;97.91
5522;BME280;2783;48.730;8.006;2024-02-28T02:10:58;100243.53;;;8.29;98.25
5522;BME280;2783;48.730;8.006;2024-02-28T02:13:23;100244.56;;;8.20;98.63
5522;BME280;2783;48.730;8.006;2024-02-28T02:15:49;100249.13;;;8.11;98.49
5522;BME280;2783;48.730;8.006;2024-02-28T02:18:14;100203.91;;;7.75;99.43
5522;BME280;2783;48.730;8.006;2024-02-28T02:20:43;100246.81;;;7.95;99.25
5522;BME280;2783;48.730;8.006;2024-02-28T02:23:10;100253.13;;;7.87;99.34
5522;BME280;2783;48.730;8.006;2024-02-28T02:25:46;100253.19;;;7.84;100.00
5522;BME280;2783;48.730;8.006;2024-02-28T02:28:12;100258.66;;;7.73;100.00
5522;BME280;2783;48.730;8.006;2024-02-28T02:30:38;100255.34;;;7.62;100.00
5522;BME280;2783;48.730;8.006;2024-02-28T02:33:04;100257.19;;;7.57;100.00
5522;BME280;2783;48.730;8.006;2024-02-28T02:35:30;100262.53;;;7.54;100.00
5522;BME280;2783;48.730;8.006;2024-02-28T02:37:55;100269.69;;;7.49;100.00
5522;BME280;2783;48.730;8.006;2024-02-28T02:40:20;100272.47;;;7.40;100.00
5522;BME280;2783;48.730;8.006;2024-02-28T02:42:46;100269.88;;;7.36;100.00
5522;BME280;2783;48.730;8.006;2024-02-28T02:45:11;100274.41;;;7.29;100.00
5522;BME280;2783;48.730;8.006;2024-02-28T02:47:37;100269.25;;;7.19;100.00
5522;BME280;2783;48.730;8.006;2024-02-28T02:50:02;100279.00;;;7.15;100.00
5522;BME280;2783;48.730;8.006;2024-02-28T02:52:28;100284.31;;;7.15;100.00
5522;BME280;2783;48.730;8.006;2024-02-28T02:54:53;100291.38;;;7.15;100.00
5522;BME280;2783;48.730;8.006;2024-02-28T02:57:19;100290.56;;;7.10;100.00
5522;BME280;2783;48.730;8.006;2024-02-28T02:59:45;100285.31;;;7.05;100.00
5522;BME280;2783;48.730;8.006;2024-02-28T03:02:10;100289.78;;;7.03;100.00
5522;BME280;2783;48.730;8.006;2024-02-28T03:04:36;100307.50;;;6.98;100.00
5522;BME280;2783;48.730;8.006;2024-02-28T03:07:01;100304.88;;;6.95;100.00
5522;BME280;2783;48.730;8.006;2024-02-28T03:09:26;100310.25;;;6.89;100.00
5522;BME280;2783;48.730;8.006;2024-02-28T03:11:52;100313.84;;;6.84;100.00
5522;BME280;2783;48.730;8.006;2024-02-28T03:14:17;100313.00;;;6.80;100.00
5522;BME280;2783;48.730;8.006;2024-02-28T03:16:44;100301.56;;;6.80;100.00
5522;BME280;2783;48.730;8.006;2024-02-28T03:19:10;100308.63;;;6.78;100.00
5522;BME280;2783;48.730;8.006;2024-02-28T03:21:36;100306.88;;;6.77;100.00
5522;BME280;2783;48.730;8.006;2024-02-28T03:24:02;100311.34;;;6.73;100.00
5522;BME280;2783;48.730;8.006;2024-02-28T03:26:27;100314.81;;;6.77;100.00
5522;BME280;2783;48.730;8.006;2024-02-28T03:28:53;100316.59;;;6.76;100.00
5522;BME280;2783;48.730;8.006;2024-02-28T03:31:18;100320.16;;;6.72;100.00
5522;BME280;2783;48.730;8.006;2024-02-28T03:33:44;100315.81;;;6.68;100.00
5522;BME280;2783;48.730;8.006;2024-02-28T03:36:09;100315.84;;;6.65;100.00
5522;BME280;2783;48.730;8.006;2024-02-28T03:38:35;100322.00;;;6.64;100.00
5522;BME280;2783;48.730;8.006;2024-02-28T03:41:02;100328.16;;;6.66;100.00
5522;BME280;2783;48.730;8.006;2024-02-28T03:43:27;100325.59;;;6.60;100.00
5522;BME280;2783;48.730;8.006;2024-02-28T03:45:53;100326.50;;;6.56;100.00
5522;BME280;2783;48.730;8.006;2024-02-28T03:48:18;100330.94;;;6.54;100.00
5522;BME280;2783;48.730;8.006;2024-02-28T03:50:43;100345.09;;;6.50;100.00
5522;BME280;2783;48.730;8.006;2024-02-28T03:53:09;100339.84;;;6.47;100.00
5522;BME280;2783;48.730;8.006;2024-02-28T03:55:34;100345.16;;;6.41;100.00
5522;BME280;2783;48.730;8.006;2024-02-28T03:58:00;100343.41;;;6.43;100.00
5522;BME280;2783;48.730;8.006;2024-02-28T04:00:25;100346.03;;;6.43;100.00
5522;BME280;2783;48.730;8.006;2024-02-28T04:02:51;100345.16;;;6.41;100.00
5522;BME280;2783;48.730;8.006;2024-02-28T04:05:16;100354.03;;;6.37;100.00
5522;BME280;2783;48.730;8.006;2024-02-28T04:07:42;100357.59;;;6.33;100.00
5522;BME280;2783;48.730;8.006;2024-02-28T04:10:08;100358.47;;;6.35;100.00
5522;BME280;2783;48.730;8.006;2024-02-28T04:12:36;100367.31;;;6.29;100.00
5522;BME280;2783;48.730;8.006;2024-02-28T04:15:01;100361.25;;;6.20;100.00
5522;BME280;2783;48.730;8.006;2024-02-28T04:17:27;100330.66;;;5.95;100.00
5522;BME280;2783;48.730;8.006;2024-02-28T04:19:53;100369.28;;;6.11;100.00
5522;BME280;2783;48.730;8.006;2024-02-28T04:22:18;100358.88;;;5.93;100.00
5522;BME280;2783;48.730;8.006;2024-02-28T04:24:44;100388.63;;;6.08;100.00
5522;BME280;2783;48.730;8.006;2024-02-28T04:27:09;100377.28;;;5.99;100.00
5522;BME280;2783;48.730;8.006;2024-02-28T04:29:37;100386.97;;;5.98;100.00
5522;BME280;2783;48.730;8.006;2024-02-28T04:32:03;100382.59;;;5.97;100.00
5522;BME280;2783;48.730;8.006;2024-02-28T04:34:28;100385.28;;;5.88;100.00
5522;BME280;2783;48.730;8.006;2024-02-28T04:36:54;100396.75;;;5.86;100.00
5522;BME280;2783;48.730;8.006;2024-02-28T04:39:19;100390.63;;;5.79;100.00
5522;BME280;2783;48.730;8.006;2024-02-28T04:41:45;100405.53;;;5.82;100.00
5522;BME280;2783;48.730;8.006;2024-02-28T04:44:10;100410.81;;;5.88;100.00
5522;BME280;2783;48.730;8.006;2024-02-28T04:46:37;100348.56;;;5.54;100.00
5522;BME280;2783;48.730;8.006;2024-02-28T04:49:02;100404.63;;;5.92;100.00
5522;BME280;2783;48.730;8.006;2024-02-28T04:51:28;100407.19;;;6.01;100.00
5522;BME280;2783;48.730;8.006;2024-02-28T04:53:53;100412.41;;;6.07;100.00
5522;BME280;2783;48.730;8.006;2024-02-28T04:56:18;100415.06;;;6.05;100.00
5522;BME280;2783;48.730;8.006;2024-02-28T04:58:44;100415.97;;;6.06;100.00
5522;BME280;2783;48.730;8.006;2024-02-28T05:01:10;100412.44;;;6.04;100.00
5522;BME280;2783;48.730;8.006;2024-02-28T05:03:35;100414.22;;;6.02;100.00
5522;BME280;2783;48.730;8.006;2024-02-28T05:06:00;100418.63;;;6.00;100.00
5522;BME280;2783;48.730;8.006;2024-02-28T05:08:26;100426.56;;;6.00;100.00
5522;BME280;2783;48.730;8.006;2024-02-28T05:10:53;100428.31;;;6.01;100.00
5522;BME280;2783;48.730;8.006;2024-02-28T05:13:19;100428.31;;;6.01;100.00
5522;BME280;2783;48.730;8.006;2024-02-28T05:15:44;100436.22;;;6.02;100.00
5522;BME280;2783;48.730;8.006;2024-02-28T05:18:10;100373.06;;;5.72;100.00
5522;BME280;2783;48.730;8.006;2024-02-28T05:20:36;100423.88;;;6.01;100.00
5522;BME280;2783;48.730;8.006;2024-02-28T05:23:01;100428.31;;;6.01;100.00
5522;BME280;2783;48.730;8.006;2024-02-28T05:25:27;100429.19;;;6.00;100.00
5522;BME280;2783;48.730;8.006;2024-02-28T05:27:52;100423.94;;;5.98;100.00
5522;BME280;2783;48.730;8.006;2024-02-28T05:30:18;100415.19;;;5.90;100.00
5522;BME280;2783;48.730;8.006;2024-02-28T05:32:44;100412.56;;;5.89;100.00
5522;BME280;2783;48.730;8.006;2024-02-28T05:35:10;100416.09;;;5.82;100.00
5522;BME280;2783;48.730;8.006;2024-02-28T05:37:37;100417.00;;;5.85;100.00
5522;BME280;2783;48.730;8.006;2024-02-28T05:40:02;100419.66;;;5.79;100.00
5522;BME280;2783;48.730;8.006;2024-02-28T05:42:28;100424.97;;;5.69;100.00
5522;BME280;2783;48.730;8.006;2024-02-28T05:44:53;100419.75;;;5.63;100.00
5522;BME280;2783;48.730;8.006;2024-02-28T05:47:19;100419.78;;;5.54;100.00
5522;BME280;2783;48.730;8.006;2024-02-28T05:49:45;100436.53;;;5.50;100.00
5522;BME280;2783;48.730;8.006;2024-02-28T05:52:10;100432.19;;;5.43;100.00
5522;BME280;2783;48.730;8.006;2024-02-28T05:54:36;100432.22;;;5.36;100.00
5522;BME280;2783;48.730;8.006;2024-02-28T05:57:02;100434.00;;;5.34;100.00
5522;BME280;2783;48.730;8.006;2024-02-28T05:59:27;100418.22;;;5.28;100.00
5522;BME280;2783;48.730;8.006;2024-02-28T06:01:53;100429.63;;;5.32;100.00
5522;BME280;2783;48.730;8.006;2024-02-28T06:04:18;100427.84;;;5.31;100.00
5522;BME280;2783;48.730;8.006;2024-02-28T06:06:44;100427.84;;;5.31;100.00
5522;BME280;2783;48.730;8.006;2024-02-28T06:09:09;100425.22;;;5.29;100.00
5522;BME280;2783;48.730;8.006;2024-02-28T06:11:35;100432.25;;;5.27;100.00
5522;BME280;2783;48.730;8.006;2024-02-28T06:14:01;100402.50;;;5.01;100.00
5522;BME280;2783;48.730;8.006;2024-02-28T06:16:29;100444.56;;;5.25;100.00
5522;BME280;2783;48.730;8.006;2024-02-28T06:18:54;100429.66;;;5.21;100.00
5522;BME280;2783;48.730;8.006;2024-02-28T06:21:22;100450.72;;;5.24;100.00
5522;BME280;2783;48.730;8.006;2024-02-28T06:23:47;100449.84;;;5.31;100.00
5522;BME280;2783;48.730;8.006;2024-02-28T06:26:13;100413.00;;;5.07;100.00
5522;BME280;2783;48.730;8.006;2024-02-28T06:28:43;100454.22;;;5.32;100.00
5522;BME280;2783;48.730;8.006;2024-02-28T06:31:17;100460.38;;;5.34;100.00
5522;BME280;2783;48.730;8.006;2024-02-28T06:33:43;100464.75;;;5.38;100.00
5522;BME280;2783;48.730;8.006;2024-02-28T06:36:09;100468.25;;;5.44;100.00
5522;BME280;2783;48.730;8.006;2024-02-28T06:38:34;100466.44;;;5.50;100.00
5522;BME280;2783;48.730;8.006;2024-02-28T06:41:03;100478.72;;;5.54;100.00
5522;BME280;2783;48.730;8.006;2024-02-28T06:43:30;100479.59;;;5.58;100.00
5522;BME280;2783;48.730;8.006;2024-02-28T06:45:55;100484.84;;;5.67;100.00
5522;BME280;2783;48.730;8.006;2024-02-28T06:48:21;100497.06;;;5.80;100.00
5522;BME280;2783;48.730;8.006;2024-02-28T06:50:46;100493.47;;;5.96;100.00
5522;BME280;2783;48.730;8.006;2024-02-28T06:53:12;100492.47;;;6.13;100.00
5522;BME280;2783;48.730;8.006;2024-02-28T06:55:37;100504.69;;;6.31;100.00
5522;BME280;2783;48.730;8.006;2024-02-28T06:58:02;100512.47;;;6.46;100.00
5522;BME280;2783;48.730;8.006;2024-02-28T07:00:28;100516.75;;;6.60;100.00
5522;BME280;2783;48.730;8.006;2024-02-28T07:02:53;100515.78;;;6.69;100.00
5522;BME280;2783;48.730;8.006;2024-02-28T07:05:19;100509.63;;;6.65;100.00
5522;BME280;2783;48.730;8.006;2024-02-28T07:07:44;100523.72;;;6.72;100.00
5522;BME280;2783;48.730;8.006;2024-02-28T07:10:10;100528.00;;;6.81;100.00
5522;BME280;2783;48.730;8.006;2024-02-28T07:12:36;100520.94;;;6.84;100.00
5522;BME280;2783;48.730;8.006;2024-02-28T07:15:01;100526.19;;;6.90;100.00
5522;BME280;2783;48.730;8.006;2024-02-28T07:17:26;100529.66;;;6.95;100.00
5522;BME280;2783;48.730;8.006;2024-02-28T07:19:52;100541.94;;;6.99;100.00
5522;BME280;2783;48.730;8.006;2024-02-28T07:22:17;100541.78;;;7.14;100.00
5522;BME280;2783;48.730;8.006;2024-02-28T07:24:43;100539.03;;;7.25;100.00
5522;BME280;2783;48.730;8.006;2024-02-28T07:27:09;100544.00;;;7.52;100.00
5522;BME280;2783;48.730;8.006;2024-02-28T07:29:34;100549.06;;;8.37;100.00
5522;BME280;2783;48.730;8.006;2024-02-28T07:32:01;100551.88;;;9.72;100.00
5522;BME280;2783;48.730;8.006;2024-02-28T07:34:28;100563.78;;;11.07;91.95
5522;BME280;2783;48.730;8.006;2024-02-28T07:36:53;100549.09;;;12.46;85.11
5522;BME280;2783;48.730;8.006;2024-02-28T07:39:19;100549.94;;;13.52;75.14
5522;BME280;2783;48.730;8.006;2024-02-28T07:41:46;100557.38;;;14.15;66.69
5522;BME280;2783;48.730;8.006;2024-02-28T07:44:11;100564.84;;;14.51;63.49
5522;BME280;2783;48.730;8.006;2024-02-28T07:46:37;100566.72;;;14.71;58.86
5522;BME280;2783;48.730;8.006;2024-02-28T07:49:02;100581.19;;;14.89;58.29
5522;BME280;2783;48.730;8.006;2024-02-28T07:51:28;100540.97;;;15.10;58.15
5522;BME280;2783;48.730;8.006;2024-02-28T07:53:54;100577.06;;;15.02;56.09
5522;BME280;2783;48.730;8.006;2024-02-28T07:56:20;100574.44;;;15.00;55.78
5522;BME280;2783;48.730;8.006;2024-02-28T07:58:46;100567.06;;;15.27;56.05
5522;BME280;2783;48.730;8.006;2024-02-28T08:01:12;100571.13;;;15.35;53.90
5522;BME280;2783;48.730;8.006;2024-02-28T08:03:37;100566.16;;;15.87;54.26
5522;BME280;2783;48.730;8.006;2024-02-28T08:06:03;100575.56;;;16.15;51.29
5522;BME280;2783;48.730;8.006;2024-02-28T08:08:29;100573.06;;;16.68;51.59
5522;BME280;2783;48.730;8.006;2024-02-28T08:10:54;100562.41;;;17.19;49.42
5522;BME280;2783;48.730;8.006;2024-02-28T08:13:20;100567.47;;;17.25;47.51
5522;BME280;2783;48.730;8.006;2024-02-28T08:15:45;100573.25;;;16.82;49.14
5522;BME280;2783;48.730;8.006;2024-02-28T08:18:11;100569.69;;;17.00;49.28
5522;BME280;2783;48.730;8.006;2024-02-28T08:20:37;100536.75;;;16.78;47.85
5522;BME280;2783;48.730;8.006;2024-02-28T08:23:04;100514.56;;;17.43;47.07
5522;BME280;2783;48.730;8.006;2024-02-28T08:25:29;100573.56;;;18.12;46.35
5522;BME280;2783;48.730;8.006;2024-02-28T08:27:55;100577.41;;;18.72;44.49
5522;BME280;2783;48.730;8.006;2024-02-28T08:30:21;100576.81;;;18.67;43.87
5522;BME280;2783;48.730;8.006;2024-02-28T08:32:47;100554.38;;;18.67;43.98
5522;BME280;2783;48.730;8.006;2024-02-28T08:35:12;100583.56;;;18.90;44.07
5522;BME280;2783;48.730;8.006;2024-02-28T08:37:40;100575.59;;;19.18;44.07
5522;BME280;2783;48.730;8.006;2024-02-28T08:40:07;100584.09;;;18.96;43.71
5522;BME280;2783;48.730;8.006;2024-02-28T08:42:32;100577.28;;;19.05;44.04
5522;BME280;2783;48.730;8.006;2024-02-28T08:44:59;100578.44;;;19.46;43.03
5522;BME280;2783;48.730;8.006;2024-02-28T08:47:25;100580.44;;;19.72;42.02
5522;BME280;2783;48.730;8.006;2024-02-28T08:49:53;100585.81;;;19.72;42.88
5522;BME280;2783;48.730;8.006;2024-02-28T08:52:19;100587.34;;;20.06;42.25
5522;BME280;2783;48.730;8.006;2024-02-28T08:54:45;100587.59;;;19.73;42.88
5522;BME280;2783;48.730;8.006;2024-02-28T08:57:10;100582.91;;;19.61;41.85
5522;BME280;2783;48.730;8.006;2024-02-28T08:59:36;100575.47;;;19.80;42.73
5522;BME280;2783;48.730;8.006;2024-02-28T09:02:01;100575.34;;;19.38;42.07
5522;BME280;2783;48.730;8.006;2024-02-28T09:04:27;100576.72;;;19.45;43.59
5522;BME280;2783;48.730;8.006;2024-02-28T09:06:52;100579.81;;;19.53;42.97
5522;BME280;2783;48.730;8.006;2024-02-28T09:09:20;100582.63;;;19.51;41.95
5522;BME280;2783;48.730;8.006;2024-02-28T09:11:45;100588.75;;;19.24;43.75
5522;BME280;2783;48.730;8.006;2024-02-28T09:14:11;100587.06;;;18.92;43.20
5522;BME280;2783;48.730;8.006;2024-02-28T09:16:36;100590.47;;;18.64;44.01
5522;BME280;2783;48.730;8.006;2024-02-28T09:19:04;100589.50;;;18.81;44.66
5522;BME280;2783;48.730;8.006;2024-02-28T09:21:29;100593.13;;;18.49;45.58
5522;BME280;2783;48.730;8.006;2024-02-28T09:23:55;100597.34;;;18.70;45.11
5522;BME280;2783;48.730;8.006;2024-02-28T09:26:20;100598.59;;;18.47;45.34
5522;BME280;2783;48.730;8.006;2024-02-28T09:28:45;100594.28;;;18.76;45.04
5522;BME280;2783;48.730;8.006;2024-02-28T09:31:11;100594.97;;;18.79;45.13
5522;BME280;2783;48.730;8.006;2024-02-28T09:33:37;100596.78;;;18.48;45.20
5522;BME280;2783;48.730;8.006;2024-02-28T09:36:03;100589.78;;;18.76;45.13
5522;BME280;2783;48.730;8.006;2024-02-28T09:38:29;100585.97;;;19.10;44.20
5522;BME280;2783;48.730;8.006;2024-02-28T09:40:55;100567.56;;;18.87;44.34
5522;BME280;2783;48.730;8.006;2024-02-28T09:43:28;100581.84;;;18.58;44.63
5522;BME280;2783;48.730;8.006;2024-02-28T09:45:59;100587.41;;;18.70;44.99
5522;BME280;2783;48.730;8.006;2024-02-28T09:48:27;100586.00;;;18.48;45.56
5522;BME280;2783;48.730;8.006;2024-02-28T09:50:54;100592.66;;;17.75;45.82
5522;BME280;2783;48.730;8.006;2024-02-28T09:53:21;100593.25;;;17.97;46.75
5522;BME280;2783;48.730;8.006;2024-02-28T09:55:48;100596.28;;;17.91;47.24
5522;BME280;2783;48.730;8.006;2024-02-28T09:58:14;100585.56;;;17.57;48.12
5522;BME280;2783;48.730;8.006;2024-02-28T10:00:41;100595.81;;;17.66;50.22
5522;BME280;2783;48.730;8.006;2024-02-28T10:03:10;100595.53;;;17.72;47.36
5522;BME280;2783;48.730;8.006;2024-02-28T10:05:37;100607.81;;;17.42;48.62
5522;BME280;2783;48.730;8.006;2024-02-28T10:08:05;100599.31;;;17.68;50.03
5522;BME280;2783;48.730;8.006;2024-02-28T10:10:30;100597.94;;;17.94;48.87
5522;BME280;2783;48.730;8.006;2024-02-28T10:12:56;100599.41;;;18.16;48.08
5522;BME280;2783;48.730;8.006;2024-02-28T10:15:22;100602.78;;;18.20;47.02
5522;BME280;2783;48.730;8.006;2024-02-28T10:17:47;100608.88;;;18.23;48.09
5522;BME280;2783;48.730;8.006;2024-02-28T10:20:14;100588.72;;;18.30;46.62
5522;BME280;2783;48.730;8.006;2024-02-28T10:22:39;100624.19;;;19.02;47.01
5522;BME280;2783;48.730;8.006;2024-02-28T10:25:05;100625.66;;;19.08;46.53
5522;BME280;2783;48.730;8.006;2024-02-28T10:27:34;100629.38;;;19.36;45.79
5522;BME280;2783;48.730;8.006;2024-02-28T10:30:00;100630.88;;;19.11;45.62
5522;BME280;2783;48.730;8.006;2024-02-28T10:32:32;100631.91;;;19.08;46.11
5522;BME280;2783;48.730;8.006;2024-02-28T10:35:00;100636.78;;;19.02;46.37
5522;BME280;2783;48.730;8.006;2024-02-28T10:37:28;100638.97;;;19.11;47.94
5522;BME280;2783;48.730;8.006;2024-02-28T10:39:57;100634.66;;;18.93;44.71
5522;BME280;2783;48.730;8.006;2024-02-28T10:42:25;100635.78;;;19.04;47.16
5522;BME280;2783;48.730;8.006;2024-02-28T10:44:52;100633.81;;;19.22;47.67
5522;BME280;2783;48.730;8.006;2024-02-28T10:47:19;100626.91;;;19.47;45.83
5522;BME280;2783;48.730;8.006;2024-02-28T10:49:45;100630.69;;;19.45;45.70
5522;BME280;2783;48.730;8.006;2024-02-28T10:52:11;100632.38;;;19.61;47.03
5522;BME280;2783;48.730;8.006;2024-02-28T10:54:40;100630.69;;;19.89;46.32
5522;BME280;2783;48.730;8.006;2024-02-28T10:57:08;100633.16;;;19.93;43.78
5522;BME280;2783;48.730;8.006;2024-02-28T10:59:35;100625.25;;;20.04;44.20
5522;BME280;2783;48.730;8.006;2024-02-28T11:02:02;100625.34;;;20.03;44.93
5522;BME280;2783;48.730;8.006;2024-02-28T11:04:29;100625.38;;;19.73;44.58
5522;BME280;2783;48.730;8.006;2024-02-28T11:06:56;100626.88;;;19.93;45.76
5522;BME280;2783;48.730;8.006;2024-02-28T11:09:22;100627.09;;;19.60;44.53
5522;BME280;2783;48.730;8.006;2024-02-28T11:11:49;100631.09;;;19.83;44.53
5522;BME280;2783;48.730;8.006;2024-02-28T11:14:15;100635.56;;;20.12;45.34
5522;BME280;2783;48.730;8.006;2024-02-28T11:16:41;100640.66;;;20.46;44.24
5522;BME280;2783;48.730;8.006;2024-02-28T11:19:21;100634.19;;;20.34;42.99
5522;BME280;2783;48.730;8.006;2024-02-28T11:21:54;100645.44;;;20.27;43.93
5522;BME280;2783;48.730;8.006;2024-02-28T11:24:28;100643.81;;;20.24;44.04
5522;BME280;2783;48.730;8.006;2024-02-28T11:26:54;100614.63;;;20.01;43.62
5522;BME280;2783;48.730;8.006;2024-02-28T11:29:27;100641.91;;;20.40;44.70
5522;BME280;2783;48.730;8.006;2024-02-28T11:31:54;100639.94;;;20.56;43.78
5522;BME280;2783;48.730;8.006;2024-02-28T11:34:20;100634.31;;;20.87;43.24
5522;BME280;2783;48.730;8.006;2024-02-28T11:36:49;100639.75;;;21.28;44.25
5522;BME280;2783;48.730;8.006;2024-02-28T11:39:16;100628.00;;;21.15;41.76
5522;BME280;2783;48.730;8.006;2024-02-28T11:41:42;100633.25;;;21.57;42.87
5522;BME280;2783;48.730;8.006;2024-02-28T11:44:15;100634.94;;;21.19;41.47
5522;BME280;2783;48.730;8.006;2024-02-28T11:46:47;100630.06;;;21.38;41.63
5522;BME280;2783;48.730;8.006;2024-02-28T11:49:13;100634.53;;;20.99;43.14
5522;BME280;2783;48.730;8.006;2024-02-28T11:51:43;100628.06;;;21.28;42.92
5522;BME280;2783;48.730;8.006;2024-02-28T11:54:09;100624.47;;;21.27;42.23
5522;BME280;2783;48.730;8.006;2024-02-28T11:56:38;100629.53;;;21.19;41.65
5522;BME280;2783;48.730;8.006;2024-02-28T11:59:04;100627.41;;;21.37;42.49
5522;BME280;2783;48.730;8.006;2024-02-28T12:01:39;100631.97;;;21.10;40.04
5522;BME280;2783;48.730;8.006;2024-02-28T12:04:05;100636.06;;;21.29;41.05
5522;BME280;2783;48.730;8.006;2024-02-28T12:06:33;100619.75;;;21.43;40.53
5522;BME280;2783;48.730;8.006;2024-02-28T12:08:59;100623.50;;;21.02;43.14
5522;BME280;2783;48.730;8.006;2024-02-28T12:11:24;100616.16;;;21.04;41.24
5522;BME280;2783;48.730;8.006;2024-02-28T12:13:54;100614.31;;;21.31;40.17
5522;BME280;2783;48.730;8.006;2024-02-28T12:16:25;100607.47;;;20.99;39.84
5522;BME280;2783;48.730;8.006;2024-02-28T12:18:51;100609.09;;;21.28;40.94
5522;BME280;2783;48.730;8.006;2024-02-28T12:21:18;100608.00;;;21.18;41.84
5522;BME280;2783;48.730;8.006;2024-02-28T12:23:43;100596.91;;;21.35;42.12
5522;BME280;2783;48.730;8.006;2024-02-28T12:26:09;100596.88;;;21.61;39.99
5522;BME280;2783;48.730;8.006;2024-02-28T12:28:34;100600.84;;;21.56;41.25
5522;BME280;2783;48.730;8.006;2024-02-28T12:31:00;100599.91;;;21.69;40.32
5522;BME280;2783;48.730;8.006;2024-02-28T12:33:25;100595.31;;;21.84;38.92
5522;BME280;2783;48.730;8.006;2024-02-28T12:35:51;100599.66;;;21.60;40.39
5522;BME280;2783;48.730;8.006;2024-02-28T12:38:17;100590.97;;;21.16;42.10
5522;BME280;2783;48.730;8.006;2024-02-28T12:40:42;100593.25;;;20.95;41.27
5522;BME280;2783;48.730;8.006;2024-02-28T12:43:08;100590.94;;;21.30;40.88
5522;BME280;2783;48.730;8.006;2024-02-28T12:45:33;100578.47;;;21.27;39.69
5522;BME280;2783;48.730;8.006;2024-02-28T12:47:59;100568.13;;;21.46;41.18
5522;BME280;2783;48.730;8.006;2024-02-28T12:50:26;100569.19;;;21.44;41.05
5522;BME280;2783;48.730;8.006;2024-02-28T12:52:52;100563.97;;;21.28;38.82
5522;BME280;2783;48.730;8.006;2024-02-28T12:55:19;100560.16;;;20.77;39.32
5522;BME280;2783;48.730;8.006;2024-02-28T12:57:46;100569.03;;;20.79;39.99
5522;BME280;2783;48.730;8.006;2024-02-28T13:00:12;100564.91;;;21.54;41.10
5522;BME280;2783;48.730;8.006;2024-02-28T13:02:38;100559.88;;;21.87;39.56
5522;BME280;2783;48.730;8.006;2024-02-28T13:05:04;100554.00;;;21.68;40.53
5522;BME280;2783;48.730;8.006;2024-02-28T13:07:29;100551.94;;;21.20;40.61